createdAt,value
2022-09-22T00:01:36.084Z,102115.81
2022-09-22T00:04:07.203Z,102147.13
2022-09-22T00:06:38.834Z,102139.50
2022-09-22T00:09:09.275Z,102145.66
2022-09-22T00:11:40.060Z,102147.53
2022-09-22T00:14:10.789Z,102143.13
2022-09-22T00:16:43.136Z,102137.84
2022-09-22T00:19:14.202Z,102150.47
2022-09-22T00:21:42.323Z,102141.66
2022-09-22T00:24:10.533Z,102141.72
2022-09-22T00:26:39.463Z,102136.47
2022-09-22T00:29:09.350Z,102142.75
2022-09-22T00:31:38.910Z,102132.19
2022-09-22T00:34:09.295Z,102133.16
2022-09-22T00:36:37.186Z,102131.41
2022-09-22T00:39:05.485Z,102132.34
2022-09-22T00:41:37.190Z,102137.69
2022-09-22T00:44:37.103Z,102132.44
2022-09-22T00:47:16.209Z,102128.88
2022-09-22T00:49:50.812Z,102128.88
2022-09-22T00:52:24.041Z,102134.25
2022-09-22T00:54:54.194Z,102137.88
2022-09-22T00:57:26.809Z,102128.97
2022-09-22T00:59:55.489Z,102123.69
2022-09-22T01:02:23.424Z,102121.00
2022-09-22T01:04:53.613Z,102127.25
2022-09-22T01:07:25.144Z,102121.81
2022-09-22T01:09:53.533Z,102128.97
2022-09-22T01:12:21.546Z,102123.69
2022-09-22T01:15:02.596Z,102123.63
2022-09-22T01:17:37.325Z,102119.19
2022-09-22T01:20:31.011Z,102116.53
2022-09-22T01:23:28.808Z,102122.81
2022-09-22T01:26:33.348Z,102122.81
2022-09-22T01:29:36.075Z,102118.47
2022-09-22T01:32:16.779Z,102116.84
2022-09-22T01:34:49.788Z,102111.56
2022-09-22T01:37:25.324Z,102115.19
2022-09-22T01:39:58.982Z,102112.59
2022-09-22T01:42:33.801Z,102110.00
2022-09-22T01:45:05.879Z,102110.16
2022-09-22T01:47:40.601Z,102106.53
2022-09-22T01:50:16.108Z,102097.72
2022-09-22T01:52:45.312Z,102098.75
2022-09-22T01:55:17.795Z,102092.50
2022-09-22T01:57:52.537Z,102086.47
2022-09-22T02:00:23.186Z,102070.94
2022-09-22T02:02:59.668Z,102085.59
2022-09-22T02:05:33.723Z,102082.97
2022-09-22T02:08:08.332Z,102088.34
2022-09-22T02:10:41.708Z,102083.94
2022-09-22T02:13:09.718Z,102085.88
2022-09-22T02:16:00.534Z,102080.53
2022-09-22T02:18:35.146Z,102084.16
2022-09-22T02:21:04.496Z,102067.69
2022-09-22T02:23:33.264Z,102078.81
2022-09-22T02:26:03.063Z,102072.59
2022-09-22T02:28:32.780Z,102069.03
2022-09-22T02:31:19.620Z,102076.19
2022-09-22T02:33:51.887Z,102072.66
2022-09-22T02:36:39.885Z,102077.06
2022-09-22T02:39:12.489Z,102075.31
2022-09-22T02:41:54.696Z,102073.59
2022-09-22T02:44:27.004Z,102051.72
2022-09-22T02:47:01.204Z,102061.06
2022-09-22T02:49:31.413Z,102062.03
2022-09-22T02:52:00.029Z,102063.75
2022-09-22T02:54:28.042Z,102062.91
2022-09-22T02:56:56.093Z,102064.63
2022-09-22T02:59:24.053Z,102061.16
2022-09-22T03:01:52.029Z,102055.81
2022-09-22T03:04:19.935Z,102058.31
2022-09-22T03:06:49.190Z,102058.31
2022-09-22T03:09:18.132Z,102052.19
2022-09-22T03:11:46.542Z,102056.75
2022-09-22T03:14:14.513Z,102051.47
2022-09-22T03:16:42.376Z,102046.22
2022-09-22T03:19:10.340Z,102044.47
2022-09-22T03:21:38.200Z,102042.91
2022-09-22T03:24:07.667Z,102035.03
2022-09-22T03:26:35.922Z,102047.53
2022-09-22T03:29:03.847Z,102044.88
2022-09-22T03:31:31.683Z,102043.22
2022-09-22T03:33:59.727Z,102047.78
2022-09-22T03:36:27.616Z,102039.91
2022-09-22T03:38:55.745Z,102045.31
2022-09-22T03:41:24.996Z,102040.84
2022-09-22T03:43:53.568Z,102034.81
2022-09-22T03:46:21.627Z,102035.75
2022-09-22T03:48:49.561Z,102032.28
2022-09-22T03:51:17.571Z,102032.50
2022-09-22T03:53:46.205Z,102034.25
2022-09-22T03:56:16.276Z,102036.91
2022-09-22T03:58:45.750Z,102031.56
2022-09-22T04:01:13.912Z,102026.31
2022-09-22T04:03:41.951Z,102036.13
2022-09-22T04:06:09.851Z,102036.19
2022-09-22T04:08:37.777Z,102032.69
2022-09-22T04:11:06.898Z,102030.00
2022-09-22T04:13:35.436Z,102029.19
2022-09-22T04:16:05.989Z,102023.78
2022-09-22T04:18:34.285Z,102029.19
2022-09-22T04:21:02.221Z,102038.19
2022-09-22T04:23:30.142Z,102025.72
2022-09-22T04:25:58.059Z,102038.19
2022-09-22T04:28:26.258Z,102037.31
2022-09-22T04:30:54.151Z,102034.72
2022-09-22T04:33:24.520Z,102039.06
2022-09-22T04:35:53.260Z,102040.75
2022-09-22T04:38:21.597Z,102037.22
2022-09-22T04:40:49.661Z,102039.88
2022-09-22T04:43:17.889Z,102041.63
2022-09-22T04:45:48.703Z,102032.69
2022-09-22T04:48:17.142Z,101996.31
2022-09-22T04:50:48.296Z,102007.88
2022-09-22T04:53:16.896Z,102031.09
2022-09-22T04:55:45.161Z,102030.31
2022-09-22T04:58:13.984Z,102025.00
2022-09-22T05:00:42.053Z,102030.34
2022-09-22T05:03:10.606Z,102033.13
2022-09-22T05:05:38.625Z,102030.44
2022-09-22T05:08:07.951Z,102018.88
2022-09-22T05:10:36.789Z,102023.44
2022-09-22T05:13:05.844Z,102023.59
2022-09-22T05:15:34.814Z,102028.94
2022-09-22T05:18:02.937Z,102031.72
2022-09-22T05:20:30.824Z,102025.50
2022-09-22T05:22:58.768Z,102036.28
2022-09-22T05:25:28.125Z,102030.94
2022-09-22T05:27:57.375Z,102030.13
2022-09-22T05:30:27.447Z,102028.41
2022-09-22T05:32:55.407Z,102028.47
2022-09-22T05:35:24.917Z,102022.25
2022-09-22T05:37:54.264Z,101992.09
2022-09-22T05:40:24.101Z,102028.47
2022-09-22T05:42:54.876Z,102023.09
2022-09-22T05:45:23.021Z,102024.06
2022-09-22T05:47:51.224Z,102020.53
2022-09-22T05:50:21.346Z,102024.91
2022-09-22T05:52:49.228Z,102025.88
2022-09-22T05:55:17.254Z,102014.53
2022-09-22T05:57:45.105Z,102026.66
2022-09-22T06:00:15.092Z,102027.53
2022-09-22T06:02:44.678Z,102033.75
2022-09-22T06:05:15.294Z,102032.78
2022-09-22T06:07:45.355Z,102027.44
2022-09-22T06:10:13.229Z,102026.50
2022-09-22T06:12:41.347Z,102027.44
2022-09-22T06:15:09.807Z,102029.03
2022-09-22T06:17:39.086Z,102029.81
2022-09-22T06:20:08.543Z,102021.78
2022-09-22T06:22:37.293Z,102025.25
2022-09-22T06:25:09.075Z,102025.19
2022-09-22T06:27:37.080Z,102019.84
2022-09-22T06:30:05.521Z,102024.22
2022-09-22T06:32:34.312Z,102018.81
2022-09-22T06:35:03.543Z,102028.50
2022-09-22T06:37:32.639Z,102032.09
2022-09-22T06:40:00.646Z,102024.94
2022-09-22T06:42:28.596Z,102023.94
2022-09-22T06:44:56.541Z,102024.81
2022-09-22T06:47:24.468Z,102024.66
2022-09-22T06:49:52.382Z,102023.78
2022-09-22T06:52:21.644Z,102027.13
2022-09-22T06:54:52.575Z,102019.13
2022-09-22T06:57:21.553Z,102020.00
2022-09-22T06:59:49.791Z,102021.63
2022-09-22T07:02:18.417Z,102016.06
2022-09-22T07:04:48.260Z,102022.13
2022-09-22T07:07:16.569Z,102024.63
2022-09-22T07:09:46.348Z,102020.00
2022-09-22T07:12:14.316Z,102023.38
2022-09-22T07:14:43.913Z,102021.50
2022-09-22T07:17:11.865Z,102024.88
2022-09-22T07:19:39.748Z,102023.84
2022-09-22T07:22:08.220Z,102028.94
2022-09-22T07:24:36.068Z,102019.91
2022-09-22T07:27:07.056Z,102025.94
2022-09-22T07:29:34.965Z,102023.94
2022-09-22T07:32:03.930Z,102021.00
2022-09-22T07:34:32.200Z,102018.16
2022-09-22T07:37:00.877Z,102014.41
2022-09-22T07:39:28.805Z,102023.03
2022-09-22T07:41:56.690Z,102013.97
2022-09-22T07:44:44.582Z,102022.72
2022-09-22T07:47:13.141Z,102016.41
2022-09-22T07:49:41.069Z,102011.75
2022-09-22T07:52:09.944Z,102010.63
2022-09-22T07:54:39.821Z,101937.00
2022-09-22T07:57:11.099Z,102004.84
2022-09-22T07:59:41.904Z,102016.28
2022-09-22T08:02:11.537Z,102016.97
2022-09-22T08:04:41.174Z,102013.09
2022-09-22T08:07:09.184Z,102012.84
2022-09-22T08:09:37.082Z,102014.38
2022-09-22T08:12:05.279Z,102013.28
2022-09-22T08:14:33.182Z,102005.06
2022-09-22T08:17:02.421Z,102007.50
2022-09-22T08:19:33.891Z,102010.94
2022-09-22T08:22:01.774Z,102000.06
2022-09-22T08:24:29.804Z,102015.13
2022-09-22T08:26:57.720Z,102001.56
2022-09-22T08:29:25.567Z,101999.66
2022-09-22T08:31:54.326Z,102016.44
2022-09-22T08:34:23.870Z,102001.00
2022-09-22T08:36:51.793Z,102000.06
2022-09-22T08:39:19.798Z,102000.69
2022-09-22T08:42:05.841Z,102000.50
2022-09-22T08:44:40.363Z,102005.75
2022-09-22T08:47:17.547Z,101997.66
2022-09-22T08:50:08.990Z,101997.53
2022-09-22T08:52:39.962Z,101998.41
2022-09-22T08:55:13.324Z,101998.31
2022-09-22T08:57:59.352Z,101996.34
2022-09-22T09:00:31.595Z,101995.34
2022-09-22T09:03:14.365Z,101999.72
2022-09-22T09:06:01.411Z,101990.63
2022-09-22T09:09:19.999Z,101989.66
2022-09-22T09:12:02.316Z,101992.25
2022-09-22T09:14:48.941Z,101995.59
2022-09-22T09:17:22.009Z,101988.31
2022-09-22T09:19:55.412Z,101988.25
2022-09-22T09:22:28.681Z,101988.94
2022-09-22T09:27:55.245Z,101989.53
2022-09-22T09:30:23.565Z,101984.19
2022-09-22T09:32:54.736Z,101986.66
2022-09-22T09:35:26.873Z,101981.22
2022-09-22T09:37:59.246Z,101983.53
2022-09-22T09:40:27.723Z,101978.06
2022-09-22T09:43:03.258Z,101984.13
2022-09-22T09:45:38.210Z,101984.03
2022-09-22T09:48:18.995Z,101976.72
2022-09-22T09:50:47.008Z,101979.41
2022-09-22T09:53:41.497Z,101974.81
2022-09-22T09:56:24.232Z,101980.03
2022-09-22T09:59:17.539Z,101971.91
2022-09-22T10:01:48.156Z,101974.50
2022-09-22T10:04:29.103Z,101957.34
2022-09-22T10:07:10.372Z,101961.66
2022-09-22T10:09:40.071Z,101896.00
2022-09-22T10:12:25.767Z,101962.03
2022-09-22T10:14:55.513Z,101961.09
2022-09-22T10:17:27.867Z,101958.22
2022-09-22T10:20:17.599Z,101964.19
2022-09-22T10:22:45.784Z,101957.84
2022-09-22T10:25:23.675Z,101958.41
2022-09-22T10:28:02.996Z,101946.63
2022-09-22T10:30:37.148Z,101957.28
2022-09-22T10:33:11.718Z,101942.63
2022-09-22T10:35:40.654Z,101949.59
2022-09-22T10:38:15.759Z,101943.84
2022-09-22T10:40:48.673Z,101914.31
2022-09-22T10:43:37.143Z,101943.34
2022-09-22T10:46:26.412Z,101938.75
2022-09-22T10:49:03.960Z,101941.25
2022-09-22T10:51:47.413Z,101941.91
2022-09-22T10:54:30.123Z,101934.59
2022-09-22T10:57:09.230Z,101938.09
2022-09-22T10:59:53.905Z,101937.09
2022-09-22T11:02:55.253Z,101930.84
2022-09-22T11:05:50.692Z,101924.34
2022-09-22T11:08:38.604Z,101913.59
2022-09-22T11:11:37.262Z,101913.44
2022-09-22T11:14:24.585Z,101908.94
2022-09-22T11:17:10.431Z,101909.69
2022-09-22T11:20:01.492Z,101911.19
2022-09-22T11:22:45.134Z,101906.81
2022-09-22T11:25:40.872Z,101899.50
2022-09-22T11:28:26.089Z,101902.84
2022-09-22T11:30:57.590Z,101899.19
2022-09-22T11:33:48.884Z,101891.88
2022-09-22T11:36:27.665Z,101895.44
2022-09-22T11:39:08.748Z,101888.13
2022-09-22T11:41:42.082Z,101888.91
2022-09-22T11:44:37.185Z,101887.84
2022-09-22T11:47:30.508Z,101880.63
2022-09-22T11:50:33.997Z,101875.16
2022-09-22T11:53:28.773Z,101876.88
2022-09-22T11:56:10.300Z,101875.91
2022-09-22T11:58:41.808Z,101875.06
2022-09-22T12:01:14.836Z,101847.19
2022-09-22T12:03:48.430Z,101864.00
2022-09-22T12:06:20.980Z,101862.16
2022-09-22T12:11:25.938Z,101854.88
2022-09-22T12:13:54.893Z,101847.88
2022-09-22T12:16:31.289Z,101822.78
2022-09-22T12:19:08.069Z,101850.06
2022-09-22T12:21:48.543Z,101849.06
2022-09-22T12:24:16.649Z,101842.81
2022-09-22T12:26:46.727Z,101838.22
2022-09-22T12:29:26.025Z,101845.22
2022-09-22T12:31:56.711Z,101839.94
2022-09-22T12:34:29.497Z,101845.13
2022-09-22T12:37:01.047Z,101833.28
2022-09-22T12:39:32.173Z,101825.53
2022-09-22T12:42:01.820Z,101827.03
2022-09-22T12:44:32.995Z,101825.22
2022-09-22T12:47:04.535Z,101816.19
2022-09-22T12:49:34.539Z,101818.03
2022-09-22T12:52:02.772Z,101819.63
2022-09-22T12:54:48.668Z,101819.63
2022-09-22T12:57:32.824Z,101814.25
2022-09-22T13:00:14.725Z,101822.22
2022-09-22T13:02:45.994Z,101812.44
2022-09-22T13:05:35.506Z,101811.56
2022-09-22T13:08:04.230Z,101800.81
2022-09-22T13:11:00.346Z,101801.56
2022-09-22T13:13:42.442Z,101793.50
2022-09-22T13:16:35.730Z,101790.81
2022-09-22T13:19:09.128Z,101798.88
2022-09-22T13:21:40.112Z,101793.41
2022-09-22T13:24:19.549Z,101791.34
2022-09-22T13:26:47.470Z,101793.41
2022-09-22T13:29:17.694Z,101789.66
2022-09-22T13:31:47.152Z,101787.78
2022-09-22T13:34:22.389Z,101785.00
2022-09-22T13:36:54.012Z,101772.53
2022-09-22T13:39:24.832Z,101789.53
2022-09-22T13:41:56.821Z,101772.44
2022-09-22T13:44:30.625Z,101776.81
2022-09-22T13:47:01.964Z,101776.75
2022-09-22T13:49:33.234Z,101775.66
2022-09-22T13:52:07.329Z,101769.28
2022-09-22T13:54:38.386Z,101763.91
2022-09-22T13:57:17.082Z,101765.66
2022-09-22T13:59:45.475Z,101769.28
2022-09-22T14:02:14.902Z,101763.09
2022-09-22T14:04:51.460Z,101759.41
2022-09-22T14:07:22.779Z,101760.28
2022-09-22T14:09:51.695Z,101743.94
2022-09-22T14:12:20.860Z,101755.75
2022-09-22T14:14:48.882Z,101760.41
2022-09-22T14:17:20.706Z,101724.09
2022-09-22T14:19:57.196Z,101754.03
2022-09-22T14:22:28.364Z,101745.22
2022-09-22T14:24:58.501Z,101751.34
2022-09-22T14:27:29.085Z,101739.81
2022-09-22T14:29:58.080Z,101741.56
2022-09-22T14:32:31.296Z,101737.25
2022-09-22T14:35:02.451Z,101740.78
2022-09-22T14:37:35.274Z,101734.44
2022-09-22T14:40:06.117Z,101729.94
2022-09-22T14:42:34.496Z,101729.19
2022-09-22T14:45:27.665Z,101726.50
2022-09-22T14:48:17.928Z,101723.91
2022-09-22T14:50:49.358Z,101726.72
2022-09-22T14:53:23.336Z,101720.47
2022-09-22T14:55:54.625Z,101726.72
2022-09-22T14:58:25.285Z,101719.50
2022-09-22T15:01:13.358Z,101709.72
2022-09-22T15:03:43.447Z,101708.97
2022-09-22T15:06:14.106Z,101707.97
2022-09-22T15:08:48.901Z,101694.00
2022-09-22T15:11:18.908Z,101709.06
2022-09-22T15:13:50.823Z,101711.75
2022-09-22T15:16:37.976Z,101706.34
2022-09-22T15:19:06.474Z,101691.09
2022-09-22T15:21:40.631Z,101703.78
2022-09-22T15:24:11.672Z,101698.50
2022-09-22T15:26:41.861Z,101701.31
2022-09-22T15:29:12.655Z,101671.19
2022-09-22T15:31:40.604Z,101695.06
2022-09-22T15:34:10.473Z,101700.56
2022-09-22T15:36:45.885Z,101696.34
2022-09-22T15:39:21.579Z,101701.53
2022-09-22T15:41:49.779Z,101694.53
2022-09-22T15:44:17.832Z,101701.72
2022-09-22T15:46:48.890Z,101699.03
2022-09-22T15:49:21.060Z,101694.66
2022-09-22T15:51:49.848Z,101694.88
2022-09-22T15:54:20.481Z,101696.56
2022-09-22T15:56:51.217Z,101695.72
2022-09-22T15:59:22.362Z,101693.13
2022-09-22T16:01:51.908Z,101696.81
2022-09-22T16:04:20.152Z,101690.56
2022-09-22T16:06:54.316Z,101700.31
2022-09-22T16:09:23.745Z,101694.19
2022-09-22T16:11:51.781Z,101694.41
2022-09-22T16:14:19.865Z,101697.22
2022-09-22T16:16:47.759Z,101697.34
2022-09-22T16:19:16.150Z,101674.19
2022-09-22T16:21:51.080Z,101692.91
2022-09-22T16:24:19.025Z,101695.94
2022-09-22T16:26:48.385Z,101695.16
2022-09-22T16:29:16.555Z,101698.09
2022-09-22T16:31:44.498Z,101690.22
2022-09-22T16:34:12.531Z,101699.34
2022-09-22T16:36:41.773Z,101695.81
2022-09-22T16:39:09.891Z,101690.50
2022-09-22T16:41:37.994Z,101658.75
2022-09-22T16:44:07.238Z,101690.84
2022-09-22T16:46:35.696Z,101682.97
2022-09-22T16:49:07.338Z,101671.31
2022-09-22T16:51:38.174Z,101680.72
2022-09-22T16:54:07.597Z,101686.16
2022-09-22T16:56:37.776Z,101672.50
2022-09-22T16:59:07.772Z,101679.28
2022-09-22T17:01:37.844Z,101677.66
2022-09-22T17:04:07.642Z,101683.03
2022-09-22T17:06:38.266Z,101644.19
2022-09-22T17:09:08.005Z,101669.25
2022-09-22T17:11:38.116Z,101676.47
2022-09-22T17:14:12.411Z,101670.22
2022-09-22T17:16:42.429Z,101670.41
2022-09-22T17:19:12.367Z,101674.97
2022-09-22T17:21:41.116Z,101654.94
2022-09-22T17:24:09.731Z,101663.44
2022-09-22T17:26:41.345Z,101662.69
2022-09-22T17:29:10.977Z,101666.22
2022-09-22T17:31:41.269Z,101669.13
2022-09-22T17:34:09.837Z,101663.00
2022-09-22T17:36:37.889Z,101660.41
2022-09-22T17:39:06.304Z,101665.00
2022-09-22T17:41:35.264Z,101643.28
2022-09-22T17:44:03.695Z,101655.47
2022-09-22T17:46:35.623Z,101656.31
2022-09-22T17:49:17.463Z,101660.28
2022-09-22T17:52:05.025Z,101651.34
2022-09-22T17:54:52.428Z,101662.28
2022-09-22T17:57:22.971Z,101662.41
2022-09-22T17:59:51.456Z,101653.56
2022-09-22T18:02:22.042Z,101656.16
2022-09-22T18:04:50.059Z,101663.66
2022-09-22T18:07:19.954Z,101663.66
2022-09-22T18:09:50.845Z,101660.25
2022-09-22T18:12:21.488Z,101654.00
2022-09-22T18:14:52.082Z,101644.16
2022-09-22T18:17:24.683Z,101653.53
2022-09-22T18:19:56.113Z,101661.38
2022-09-22T18:22:24.831Z,101656.00
2022-09-22T18:24:55.159Z,101661.38
2022-09-22T18:27:25.103Z,101666.00
2022-09-22T18:29:54.138Z,101663.50
2022-09-22T18:32:23.478Z,101645.78
2022-09-22T18:34:53.900Z,101657.38
2022-09-22T18:37:22.594Z,101644.47
2022-09-22T18:39:51.361Z,101659.31
2022-09-22T18:42:24.374Z,101660.16
2022-09-22T18:44:56.639Z,101661.34
2022-09-22T18:47:26.332Z,101657.69
2022-09-22T18:49:54.300Z,101659.59
2022-09-22T18:52:24.547Z,101657.03
2022-09-22T18:54:54.683Z,101583.03
2022-09-22T18:57:24.476Z,101659.72
2022-09-22T18:59:52.556Z,101668.50
2022-09-22T19:02:22.501Z,101664.00
2022-09-22T19:04:52.632Z,101661.22
2022-09-22T19:07:43.342Z,101655.84
2022-09-22T19:10:13.375Z,101656.84
2022-09-22T19:12:45.002Z,101668.31
2022-09-22T19:15:18.983Z,101655.28
2022-09-22T19:17:50.961Z,101661.22
2022-09-22T19:20:26.194Z,101654.22
2022-09-22T19:22:54.694Z,101628.47
2022-09-22T19:25:24.538Z,101659.41
2022-09-22T19:27:54.244Z,101664.69
2022-09-22T19:30:24.893Z,101662.00
2022-09-22T19:32:55.082Z,101657.47
2022-09-22T19:35:24.810Z,101659.31
2022-09-22T19:37:53.468Z,101657.47
2022-09-22T19:40:24.309Z,101658.25
2022-09-22T19:42:53.730Z,101663.63
2022-09-22T19:45:23.857Z,101652.88
2022-09-22T19:47:52.061Z,101652.88
2022-09-22T19:50:20.140Z,101651.03
2022-09-22T19:52:49.736Z,101648.28
2022-09-22T19:55:20.878Z,101649.22
2022-09-22T19:57:52.388Z,101651.03
2022-09-22T20:00:25.955Z,101654.59
2022-09-22T20:02:58.615Z,101648.34
2022-09-22T20:05:30.445Z,101645.59
2022-09-22T20:07:59.946Z,101639.47
2022-09-22T20:10:28.213Z,101648.06
2022-09-22T20:12:56.089Z,101648.94
2022-09-22T20:15:24.010Z,101641.91
2022-09-22T20:17:52.163Z,101644.59
2022-09-22T20:20:22.665Z,101641.72
2022-09-22T20:22:56.861Z,101642.59
2022-09-22T20:25:28.731Z,101639.91
2022-09-22T20:27:57.328Z,101639.91
2022-09-22T20:30:25.482Z,101640.78
2022-09-22T20:32:53.958Z,101634.47
2022-09-22T20:35:22.017Z,101639.72
2022-09-22T20:37:51.616Z,101634.53
2022-09-22T20:40:23.110Z,101640.47
2022-09-22T20:42:54.649Z,101633.59
2022-09-22T20:45:24.794Z,101643.06
2022-09-22T20:47:52.723Z,101633.38
2022-09-22T20:50:21.216Z,101630.47
2022-09-22T20:52:49.210Z,101642.94
2022-09-22T20:55:17.380Z,101635.75
2022-09-22T20:57:45.266Z,101633.06
2022-09-22T21:00:16.329Z,101629.31
2022-09-22T21:02:44.629Z,101631.91
2022-09-22T21:05:12.771Z,101626.53
2022-09-22T21:07:40.619Z,101626.44
2022-09-22T21:10:26.689Z,101617.59
2022-09-22T21:12:56.040Z,101627.19
2022-09-22T21:15:25.389Z,101623.44
2022-09-22T21:17:53.614Z,101622.56
2022-09-22T21:20:21.635Z,101611.75
2022-09-22T21:22:49.592Z,101614.31
2022-09-22T21:25:17.660Z,101611.50
2022-09-22T21:27:45.570Z,101602.50
2022-09-22T21:30:14.677Z,101598.88
2022-09-22T21:32:43.977Z,101599.69
2022-09-22T21:35:16.752Z,101594.25
2022-09-22T21:37:45.040Z,101593.50
2022-09-22T21:40:13.299Z,101584.22
2022-09-22T21:42:41.434Z,101608.41
2022-09-22T21:45:10.312Z,101603.91
2022-09-22T21:47:38.180Z,101599.41
2022-09-22T21:50:08.740Z,101595.94
2022-09-22T21:52:38.492Z,101598.53
2022-09-22T21:55:07.529Z,101596.59
2022-09-22T21:57:35.491Z,101600.28
2022-09-22T22:00:04.789Z,101532.84
2022-09-22T22:02:53.650Z,101597.47
2022-09-22T22:05:22.924Z,101591.16
2022-09-22T22:07:50.855Z,101592.75
2022-09-22T22:10:19.233Z,101589.28
2022-09-22T22:12:47.119Z,101591.69
2022-09-22T22:15:15.558Z,101584.72
2022-09-22T22:17:43.438Z,101589.00
2022-09-22T22:20:11.382Z,101581.78
2022-09-22T22:22:40.669Z,101581.78
2022-09-22T22:25:12.867Z,101582.66
2022-09-22T22:27:40.967Z,101581.78
2022-09-22T22:30:10.379Z,101575.56
2022-09-22T22:32:38.233Z,101577.28
2022-09-22T22:35:07.322Z,101578.25
2022-09-22T22:37:36.551Z,101574.72
2022-09-22T22:40:06.705Z,101547.19
2022-09-22T22:42:34.622Z,101572.09
2022-09-22T22:45:02.501Z,101570.41
2022-09-22T22:47:30.370Z,101565.13
2022-09-22T22:49:58.225Z,101566.97
2022-09-22T22:52:26.068Z,101570.50
2022-09-22T22:54:54.103Z,101537.84
2022-09-22T22:57:23.403Z,101561.38
2022-09-22T22:59:51.257Z,101556.13
2022-09-22T23:02:19.153Z,101554.28
2022-09-22T23:04:47.092Z,101549.00
2022-09-22T23:07:14.932Z,101547.84
2022-09-22T23:09:42.796Z,101556.00
2022-09-22T23:12:10.663Z,101557.59
2022-09-22T23:14:39.884Z,101550.75
2022-09-22T23:17:07.788Z,101555.91
2022-09-22T23:19:36.011Z,101551.50
2022-09-22T23:22:04.156Z,101547.72
2022-09-22T23:24:32.072Z,101544.19
2022-09-22T23:27:00.009Z,101550.31
2022-09-22T23:29:27.865Z,101548.47
2022-09-22T23:31:57.171Z,101546.66
2022-09-22T23:34:25.110Z,101548.38
2022-09-22T23:36:53.078Z,101543.09
2022-09-22T23:39:20.928Z,101534.09
2022-09-22T23:41:49.022Z,101536.69
2022-09-22T23:44:16.940Z,101531.31
2022-09-22T23:46:44.825Z,101528.63
2022-09-22T23:49:14.052Z,101531.06
2022-09-22T23:51:43.596Z,101509.16
2022-09-22T23:54:13.657Z,101529.38
2022-09-22T23:56:41.617Z,101519.50
2022-09-22T23:59:09.696Z,101521.31
